createdAt,value
2023-04-03T00:01:26.004Z,2.90
2023-04-03T00:11:32.321Z,2.60
2023-04-03T00:21:56.747Z,4.20
2023-04-03T00:32:20.803Z,2.50
2023-04-03T00:42:37.202Z,2.60
2023-04-03T00:52:42.284Z,2.70
2023-04-03T01:03:26.535Z,3.30
2023-04-03T01:14:16.317Z,3.40
2023-04-03T01:24:55.363Z,3.60
2023-04-03T01:35:29.491Z,3.00
2023-04-03T01:45:43.777Z,2.60
2023-04-03T01:56:46.574Z,2.40
2023-04-03T02:06:55.007Z,2.10
2023-04-03T02:17:17.311Z,2.30
2023-04-03T02:27:56.936Z,2.70
2023-04-03T02:38:42.226Z,2.30
2023-04-03T02:48:58.479Z,2.00
2023-04-03T03:00:09.645Z,4.10
2023-04-03T03:10:32.606Z,2.80
2023-04-03T03:21:19.661Z,3.20
2023-04-03T03:31:37.925Z,2.80
2023-04-03T03:42:06.552Z,3.00
2023-04-03T03:53:06.723Z,3.10
2023-04-03T04:04:15.398Z,3.60
2023-04-03T04:15:25.775Z,3.70
2023-04-03T04:37:13.338Z,3.30
2023-04-03T04:47:50.637Z,3.80
2023-04-03T04:58:28.842Z,3.80
2023-04-03T05:09:27.873Z,4.00
2023-04-03T05:20:24.975Z,4.90
2023-04-03T05:31:30.570Z,5.30
2023-04-03T05:42:24.103Z,5.20
2023-04-03T05:52:54.271Z,3.90
2023-04-03T06:03:44.771Z,4.60
2023-04-03T06:14:30.126Z,5.00
2023-04-03T06:26:03.867Z,19.20
2023-04-03T06:36:42.471Z,6.80
2023-04-03T06:47:30.261Z,5.80
2023-04-03T06:58:07.925Z,4.70
2023-04-03T07:08:31.081Z,5.20
2023-04-03T07:19:22.130Z,5.60
2023-04-03T07:29:41.944Z,6.60
2023-04-03T07:40:48.158Z,16.60
2023-04-03T07:51:36.033Z,7.10
2023-04-03T08:02:58.847Z,9.20
2023-04-03T08:13:27.986Z,12.60
2023-04-03T08:24:29.428Z,8.80
2023-04-03T08:35:40.501Z,11.00
2023-04-03T08:46:53.094Z,8.00
2023-04-03T08:58:10.090Z,8.90
2023-04-03T09:09:47.830Z,9.40
2023-04-03T09:20:28.615Z,19.80
2023-04-03T09:31:00.493Z,11.10
2023-04-03T09:41:42.565Z,11.10
2023-04-03T09:53:00.390Z,14.20
2023-04-03T10:04:47.233Z,8.70
2023-04-03T10:15:43.257Z,9.30
2023-04-03T10:27:20.967Z,12.00
2023-04-03T10:38:33.313Z,7.60
2023-04-03T10:49:59.735Z,10.60
2023-04-03T11:01:35.462Z,12.50
2023-04-03T11:12:30.792Z,10.40
2023-04-03T11:23:50.923Z,8.60
2023-04-03T11:34:29.198Z,7.10
2023-04-03T11:45:36.554Z,7.90
2023-04-03T11:56:04.749Z,8.50
2023-04-03T12:06:52.713Z,9.30
2023-04-03T12:18:01.976Z,7.30
2023-04-03T12:28:25.128Z,8.10
2023-04-03T12:39:56.002Z,10.50
2023-04-03T12:51:18.003Z,9.30
2023-04-03T13:02:25.794Z,11.70
2023-04-03T13:13:36.416Z,25.10
2023-04-03T13:24:17.457Z,13.40
2023-04-03T13:35:45.339Z,9.60
2023-04-03T13:46:53.093Z,10.30
2023-04-03T13:57:25.761Z,12.20
2023-04-03T14:08:08.399Z,7.80
2023-04-03T14:18:42.218Z,11.20
2023-04-03T14:28:56.920Z,25.30
2023-04-03T14:39:37.163Z,11.40
2023-04-03T14:50:24.277Z,11.80
2023-04-03T15:01:14.025Z,18.80
2023-04-03T15:11:48.629Z,8.50
2023-04-03T15:22:40.202Z,7.70
2023-04-03T15:33:41.884Z,11.40
2023-04-03T15:44:16.588Z,20.70
2023-04-03T15:54:56.824Z,27.20
2023-04-03T16:06:22.920Z,11.30
2023-04-03T16:17:36.286Z,52.90
2023-04-03T16:28:55.813Z,16.80
2023-04-03T16:39:24.093Z,16.60
2023-04-03T16:49:35.283Z,12.50
2023-04-03T16:59:39.020Z,17.50
2023-04-03T17:09:42.939Z,12.90
2023-04-03T17:19:46.298Z,11.00
2023-04-03T17:29:49.733Z,12.60
2023-04-03T17:39:52.805Z,13.40
2023-04-03T17:49:56.610Z,12.60
2023-04-03T17:59:59.693Z,20.90
2023-04-03T18:10:05.299Z,16.70
2023-04-03T18:20:10.347Z,17.40
2023-04-03T18:30:17.023Z,18.30
2023-04-03T18:40:20.761Z,17.60
2023-04-03T18:50:23.827Z,17.50
2023-04-03T19:00:27.664Z,23.90
2023-04-03T19:10:30.936Z,45.20
2023-04-03T19:20:34.388Z,79.50
2023-04-03T19:30:38.601Z,66.70
2023-04-03T19:40:44.044Z,70.60
2023-04-03T19:50:47.444Z,98.60
2023-04-03T20:00:51.255Z,71.80
2023-04-03T20:10:55.310Z,82.00
2023-04-03T20:21:02.507Z,86.50
2023-04-03T20:31:08.045Z,50.00
2023-04-03T20:41:12.600Z,92.30
2023-04-03T20:51:18.689Z,26.20
2023-04-03T21:01:24.157Z,19.60
2023-04-03T21:12:05.793Z,18.50
2023-04-03T21:22:09.361Z,30.30
2023-04-03T21:32:14.067Z,23.80
2023-04-03T21:42:17.825Z,27.70
2023-04-03T21:52:21.263Z,34.40
2023-04-03T22:02:27.487Z,27.00
2023-04-03T22:12:34.876Z,32.40
2023-04-03T22:22:38.393Z,30.50
2023-04-03T22:32:42.259Z,28.40
2023-04-03T22:42:49.068Z,26.90
2023-04-03T22:52:52.135Z,25.50
2023-04-03T23:02:55.230Z,18.70
2023-04-03T23:12:58.258Z,27.50
2023-04-03T23:23:04.248Z,25.40
2023-04-03T23:33:07.310Z,22.80
2023-04-03T23:43:11.124Z,17.70
2023-04-03T23:53:14.110Z,19.90
